地図

経路データ

SID SEASON NUMBER BASIN SUBBASIN NAME ISO_TIME NATURE LAT LON WMO_WIND WMO_PRES WMO_AGENCY TRACK_TYPE DIST2LAND LANDFALL IFLAG USA_AGENCY USA_ATCF_ID USA_LAT USA_LON USA_RECORD USA_STATUS USA_WIND USA_PRES USA_SSHS USA_R34_NE USA_R34_SE USA_R34_SW USA_R34_NW USA_R50_NE USA_R50_SE USA_R50_SW USA_R50_NW USA_R64_NE USA_R64_SE USA_R64_SW USA_R64_NW USA_POCI USA_ROCI USA_RMW USA_EYE TOKYO_LAT TOKYO_LON TOKYO_GRADE TOKYO_WIND TOKYO_PRES TOKYO_R50_DIR TOKYO_R50_LONG TOKYO_R50_SHORT TOKYO_R30_DIR TOKYO_R30_LONG TOKYO_R30_SHORT TOKYO_LAND CMA_LAT CMA_LON CMA_CAT CMA_WIND CMA_PRES HKO_LAT HKO_LON HKO_CAT HKO_WIND HKO_PRES NEWDELHI_LAT NEWDELHI_LON NEWDELHI_GRADE NEWDELHI_WIND NEWDELHI_PRES NEWDELHI_CI NEWDELHI_DP NEWDELHI_POCI REUNION_LAT REUNION_LON REUNION_TYPE REUNION_WIND REUNION_PRES REUNION_TNUM REUNION_CI REUNION_RMW REUNION_R34_NE REUNION_R34_SE REUNION_R34_SW REUNION_R34_NW REUNION_R50_NE REUNION_R50_SE REUNION_R50_SW REUNION_R50_NW REUNION_R64_NE REUNION_R64_SE REUNION_R64_SW REUNION_R64_NW BOM_LAT BOM_LON BOM_TYPE BOM_WIND BOM_PRES BOM_TNUM BOM_CI BOM_RMW BOM_R34_NE BOM_R34_SE BOM_R34_SW BOM_R34_NW BOM_R50_NE BOM_R50_SE BOM_R50_SW BOM_R50_NW BOM_R64_NE BOM_R64_SE BOM_R64_SW BOM_R64_NW BOM_ROCI BOM_POCI BOM_EYE BOM_POS_METHOD BOM_PRES_METHOD NADI_LAT NADI_LON NADI_CAT NADI_WIND NADI_PRES WELLINGTON_LAT WELLINGTON_LON WELLINGTON_WIND WELLINGTON_PRES DS824_LAT DS824_LON DS824_STAGE DS824_WIND DS824_PRES TD9636_LAT TD9636_LON TD9636_STAGE TD9636_WIND TD9636_PRES TD9635_LAT TD9635_LON TD9635_WIND TD9635_PRES TD9635_ROCI NEUMANN_LAT NEUMANN_LON NEUMANN_CLASS NEUMANN_WIND NEUMANN_PRES MLC_LAT MLC_LON MLC_CLASS MLC_WIND MLC_PRES USA_GUST BOM_GUST BOM_GUST_PER REUNION_GUST REUNION_GUST_PER USA_SEAHGT USA_SEARAD_NE USA_SEARAD_SE USA_SEARAD_SW USA_SEARAD_NW STORM_SPEED STORM_DIR
2000003S13082 2000 1 SI MM BABIOLA 2000-01-03 06:00:00 TS -12.5000 82.4667 25 1000 reunion main 2072 2071 O____O______O_ jtwc_sh SH042000 -12.8000 82.4000 25 -1 -11.9000 82.6000 2 25 1000 2.00000 2.00000 -12.8000 82.4000 TC 25 4 230
2000003S13082 2000 1 SI MM BABIOLA 2000-01-03 09:00:00 TS -12.6308 82.3034 main 2081 2081 P____P______P_ SH042000 -12.8525 82.2525 25 -1 -12.1875 82.4051 2 25 1000 -12.8525 82.2525 TC 25 4 234
2000003S13082 2000 1 SI MM BABIOLA 2000-01-03 12:00:00 TS -12.7333 82.1333 25 1000 reunion main 2090 2090 O____O______O_ jtwc_sh SH042000 -12.9000 82.1000 25 -1 -12.4000 82.2000 2 25 1000 2.00000 2.00000 -12.9000 82.1000 TC 25 4 246
2000003S13082 2000 1 SI MM BABIOLA 2000-01-03 15:00:00 TS -12.7825 81.9567 main 2100 2099 P____P______P_ SH042000 -12.9300 81.9425 25 -1 -12.4875 81.9849 2 25 1000 -12.9300 81.9425 TC 25 3 264
2000003S13082 2000 1 SI MM BABIOLA 2000-01-03 18:00:00 TS -12.7667 81.8000 25 1000 reunion main 2099 2087 O____O______O_ jtwc_sh SH042000 -12.9000 81.8000 25 -1 -12.5000 81.8000 2 25 1000 2.00000 2.00000 -12.9000 81.8000 TC 25 3 289
2000003S13082 2000 1 SI MM BABIOLA 2000-01-03 21:00:00 TS -12.6867 81.6650 main 2087 2075 P____P______P_ SH042000 -12.7725 81.6700 27 -1 -12.5150 81.6550 2 25 999 -12.7725 81.6700 TC 27 3 316
2000003S13082 2000 1 SI MM BABIOLA 2000-01-04 00:00:00 TS -12.5667 81.6000 25 999 reunion main 2075 2064 O____O______O_ jtwc_sh SH042000 -12.6000 81.6000 30 -1 -12.5000 81.6000 2 25 999 2.00000 2.00000 -12.6000 81.6000 TC 30 2 346
2000003S13082 2000 1 SI MM BABIOLA 2000-01-04 03:00:00 TS -12.4700 81.6141 main 2064 2042 P____P______P_ SH042000 -12.4650 81.5975 30 -1 -12.4800 81.6474 2 25 999 -12.4650 81.5975 TC 30 3 30
2000003S13082 2000 1 SI MM BABIOLA 2000-01-04 06:00:00 TS -12.3333 81.7333 25 999 reunion main 2042 2021 O____O______O_ jtwc_sh SH042000 -12.3000 81.7000 30 -1 -12.4000 81.8000 2 25 999 2.00000 2.00000 -12.3000 81.7000 TC 30 5 43
2000003S13082 2000 1 SI MM BABIOLA 2000-01-04 09:00:00 TS -12.1225 81.9484 main 2021 2001 P____P______P_ SH042000 -12.0650 81.9125 27 -1 -12.2375 82.0200 2 25 999 -12.0650 81.9125 TC 27 7 46
2000003S13082 2000 1 SI MM BABIOLA 2000-01-04 12:00:00 TS -11.8667 82.2333 25 999 reunion main 2002 1972 O____O______O_ jtwc_sh SH042000 -11.8000 82.2000 25 -1 -12.0000 82.3000 2 25 999 2.00000 2.00000 -11.8000 82.2000 TC 25 8 47
2000003S13082 2000 1 SI MM BABIOLA 2000-01-04 15:00:00 TS -11.5975 82.5334 main 1972 1942 P____P______P_ SH042000 -11.5425 82.5000 25 -1 -11.7075 82.6001 2 25 999 -11.5425 82.5000 TC 25 8 48
2000003S13082 2000 1 SI MM BABIOLA 2000-01-04 18:00:00 TS -11.3333 82.8333 25 999 reunion main 1942 1923 O____O______O_ jtwc_sh SH042000 -11.3000 82.8000 25 -1 -11.4000 82.9000 2 25 999 2.00000 2.00000 -11.3000 82.8000 TC 25 8 46
2000003S13082 2000 1 SI MM BABIOLA 2000-01-04 21:00:00 TS -11.0616 83.0959 main 1924 1904 P____P______P_ SH042000 -11.0400 83.0725 25 -1 -11.1049 83.1425 2 25 999 -11.0400 83.0725 TC 25 7 49
2000003S13082 2000 1 SI MM BABIOLA 2000-01-05 00:00:00 TS -10.9000 83.3333 25 999 reunion main 1906 1906 O____O______O_ jtwc_sh SH042000 -10.9000 83.3000 25 -1 -10.9000 83.4000 2 25 999 2.00000 2.00000 -10.9000 83.3000 TC 25 5 75
2000003S13082 2000 1 SI MM BABIOLA 2000-01-05 03:00:00 TS -10.9275 83.5899 main 1911 1911 P____P______P_ SH042000 -10.9825 83.4874 27 -1 -10.8176 83.7949 2 25 999 -10.9825 83.4874 TC 27 5 115
2000003S13082 2000 1 SI MM BABIOLA 2000-01-05 06:00:00 TS -11.1000 83.7667 25 999 reunion main 1937 1937 O____O______O_ jtwc_sh SH042000 -11.2000 83.6000 30 -1 -10.9000 84.1000 2 25 999 2.00000 2.00000 -11.2000 83.6000 TC 30 5 150
2000003S13082 2000 1 SI MM BABIOLA 2000-01-05 09:00:00 TS -11.3516 83.8374 main 1970 1970 P____P______P_ SH042000 -11.4424 83.6749 30 -1 -11.1698 84.1624 2 27 998 -11.4424 83.6749 TC 30 5 185
2000003S13082 2000 1 SI MM BABIOLA 2000-01-05 12:00:00 TS -11.6333 83.7333 30 997 reunion main 1990 1990 O____O______O_ jtwc_sh SH042000 -11.7000 83.6000 30 -1 -11.5000 84.0000 2 30 997 2.50000 2.50000 -11.7000 83.6000 TC 30 6 220
2000003S13082 2000 1 SI MM BABIOLA 2000-01-05 15:00:00 TS -11.8434 83.4142 main 2007 2007 P____P______P_ SH042000 -11.9076 83.3026 32 -1 -11.7152 83.6376 2 32 996 -11.9076 83.3026 TC 32 8 241
2000003S13082 2000 1 SI MM BABIOLA 2000-01-05 18:00:00 TS -12.0333 83.0000 35 995 reunion main 2023 2023 O____O______O_ jtwc_sh SH042000 -12.1000 82.9000 35 0 -11.9000 83.2000 3 35 995 3.00000 3.00000 -12.1000 82.9000 TC 35 8 243
2000003S13082 2000 1 SI MM BABIOLA 2000-01-05 21:00:00 TS -12.2283 82.6566 main 2041 2040 P____P______P_ SH042000 -12.2925 82.5424 37 0 -12.0999 82.8849 3 35 995 -12.2925 82.5424 TC 37 8 238
2000003S13082 2000 1 SI MM BABIOLA 2000-01-06 00:00:00 TS -12.4333 82.3333 35 995 reunion main 2058 2058 O____O______O_ jtwc_sh SH042000 -12.5000 82.2000 40 0 -12.3000 82.6000 3 35 995 3.00000 3.00000 -12.5000 82.2000 TC 40 8 236
2000003S13082 2000 1 SI MM BABIOLA 2000-01-06 03:00:00 TS -12.6516 82.0233 main 2089 2088 P____P______P_ SH042000 -12.7350 81.8849 42 0 -12.4850 82.2999 3 37 993 -12.7350 81.8849 TC 42 8 231
2000003S13082 2000 1 SI MM BABIOLA 2000-01-06 06:00:00 TS -12.9000 81.7333 40 992 reunion main 2109 2109 O____O______O_ jtwc_sh SH042000 -13.0000 81.6000 45 0 -12.7000 82.0000 3 40 992 3.00000 3.00000 -13.0000 81.6000 TC 45 8 224
2000003S13082 2000 1 SI MM BABIOLA 2000-01-06 09:00:00 TS -13.1924 81.4816 main 2142 2141 P____P______P_ SH042000 -13.2924 81.3574 45 0 -12.9923 81.7299 3 40 992 -13.2924 81.3574 TC 45 8 221
2000003S13082 2000 1 SI MM BABIOLA 2000-01-06 12:00:00 TS -13.5000 81.2000 40 992 reunion main 2174 2174 O____O______O_ jtwc_sh SH042000 -13.6000 81.1000 45 0 -13.3000 81.4000 3 40 992 2.50000 3.00000 -13.6000 81.1000 TC 45 9 226
2000003S13082 2000 1 SI MM BABIOLA 2000-01-06 15:00:00 TS -13.7983 80.8300 main 2207 2207 P____P______P_ SH042000 -13.9149 80.7800 45 0 -13.5651 80.9300 3 41 991 -13.9149 80.7800 TC 45 10 234
2000003S13082 2000 1 SI MM BABIOLA 2000-01-06 18:00:00 TS -14.0667 80.4000 42 990 reunion main 2240 2240 O____O______O_ jtwc_sh SH042000 -14.2000 80.4000 45 0 -13.8000 80.4000 3 42 990 3.00000 3.00000 -14.2000 80.4000 TC 45 10 240
2000003S13082 2000 1 SI MM BABIOLA 2000-01-06 21:00:00 TS -14.2765 79.9656 main 2264 2264 P____P______P_ SH042000 -14.4148 79.9948 45 0 -13.9999 79.9073 3 43 988 -14.4148 79.9948 TC 45 10 246
2000003S13082 2000 1 SI MM BABIOLA 2000-01-07 00:00:00 TS -14.4667 79.4667 45 987 reunion main 2288 2288 O____O______O_ jtwc_sh SH042000 -14.6000 79.5000 45 0 -14.2000 79.4000 3 45 987 3.50000 3.50000 -14.6000 79.5000 TC 45 11 249
2000003S13082 2000 1 SI MM BABIOLA 2000-01-07 03:00:00 TS -14.6859 78.8700 main 2315 2253 P____P______P_ SH042000 -14.8076 78.8725 47 0 -14.4424 78.8649 3 45 987 -14.8076 78.8725 TC 47 13 250
2000003S13082 2000 1 SI MM BABIOLA 2000-01-07 06:00:00 TS -14.9000 78.2333 45 987 reunion main 2243 2185 O____O______O_ jtwc_sh SH042000 -15.0000 78.2000 50 0 -14.7000 78.3000 3 45 987 3.50000 3.50000 -15.0000 78.2000 TC 50 13 251
2000003S13082 2000 1 SI MM BABIOLA 2000-01-07 09:00:00 TS -15.0932 77.6282 main 2175 2117 P____P______P_ SH042000 -15.1573 77.5849 52 0 -14.9648 77.7150 3 47 986 -15.1573 77.5849 TC 52 12 252
2000003S13082 2000 1 SI MM BABIOLA 2000-01-07 12:00:00 TS -15.2667 77.0333 50 985 reunion main 2106 2052 O____O______O_ jtwc_sh SH042000 -15.3000 77.0000 55 0 -15.2000 77.1000 3 50 985 3.50000 3.50000 -15.3000 77.0000 TC 55 12 254
2000003S13082 2000 1 SI MM BABIOLA 2000-01-07 15:00:00 TS -15.4190 76.4424 main 2042 1984 P____P______P_ SH042000 -15.4498 76.4424 55 0 -15.3575 76.4423 3 51 982 -15.4498 76.4424 TC 55 12 255
2000003S13082 2000 1 SI MM BABIOLA 2000-01-07 18:00:00 TS -15.5667 75.8667 53 980 reunion main 1984 1930 O____O______O_ jtwc_sh SH042000 -15.6000 75.9000 55 0 -15.5000 75.8000 3 53 980 3.50000 3.50000 -15.6000 75.9000 TC 55 11 254
2000003S13082 2000 1 SI MM BABIOLA 2000-01-07 21:00:00 TS -15.7155 75.3339 main 1919 1862 P____P______P_ SH042000 -15.7347 75.3722 60 0 -15.6771 75.2572 3 54 979 -15.7347 75.3722 TC 60 11 253
2000003S13082 2000 1 SI MM BABIOLA 2000-01-08 00:00:00 TS -15.9000 74.7667 55 978 reunion main 1862 1780 O____O______O_ jtwc_sh SH042000 -15.9000 74.8000 65 1 -15.9000 74.7000 3 55 978 4.00000 4.00000 -15.9000 74.8000 TC 65 13 249
2000003S13082 2000 1 SI MM BABIOLA 2000-01-08 03:00:00 TS -16.1667 74.0869 main 1780 1702 P____P______P_ SH042000 -16.1425 74.1226 65 1 -16.2150 74.0154 3 57 975 -16.1425 74.1226 TC 65 14 248
2000003S13082 2000 1 SI MM BABIOLA 2000-01-08 06:00:00 TS -16.4333 73.3667 60 973 reunion main 1702 1624 O____O______O_ jtwc_sh SH042000 -16.4000 73.4000 65 1 -16.5000 73.3000 3 60 973 4.00000 4.00000 -16.4000 73.4000 TC 65 14 252
2000003S13082 2000 1 SI MM BABIOLA 2000-01-08 09:00:00 TS -16.6150 72.6556 main 1624 1546 P____P______P_ SH042000 -16.6150 72.6774 65 1 -16.6150 72.6121 3 62 971 -16.6150 72.6774 TC 65 14 256
2000003S13082 2000 1 SI MM BABIOLA 2000-01-08 12:00:00 TS -16.7667 72.0000 65 970 reunion main 1546 1492 O____O______O_ jtwc_sh SH042000 -16.8000 72.0000 65 1 -16.7000 72.0000 4 65 970 4.50000 4.50000 -16.8000 72.0000 TC 65 12 255
2000003S13082 2000 1 SI MM BABIOLA 2000-01-08 15:00:00 TS -16.9203 71.4780 main 1492 1435 P____P______P_ SH042000 -16.9495 71.4497 70 1 -16.8621 71.5347 4 67 967 -16.9495 71.4497 TC 70 10 251
2000003S13082 2000 1 SI MM BABIOLA 2000-01-08 18:00:00 TS -17.1000 70.9667 70 965 reunion main 1435 1357 O____O______O_ jtwc_sh SH042000 -17.1000 70.9000 75 1 -17.1000 71.1000 4 70 965 4.50000 4.50000 -17.1000 70.9000 TC 75 12 249
2000003S13082 2000 1 SI MM BABIOLA 2000-01-08 21:00:00 TS -17.3403 70.3043 main 1357 1287 P____P______P_ SH042000 -17.2929 70.1702 75 1 -17.4349 70.5726 4 71 962 -17.2929 70.1702 TC 75 13 248
2000003S13082 2000 1 SI MM BABIOLA 2000-01-09 00:00:00 TS -17.6000 69.6667 73 960 reunion main 1287 1230 O____O______O_ jtwc_sh SH042000 -17.5000 69.5000 75 1 -17.8000 70.0000 4 73 960 4.50000 4.50000 -17.5000 69.5000 TC 75 12 246
2000003S13082 2000 1 SI MM BABIOLA 2000-01-09 03:00:00 TS -17.8206 69.1906 main 1230 1180 P____P______P_ SH042000 -17.6696 69.0971 75 1 -18.1226 69.3775 4 74 959 -17.6696 69.0971 TC 75 10 241
2000003S13082 2000 1 SI MM BABIOLA 2000-01-09 06:00:00 TS -18.0667 68.8000 75 958 reunion main 1180 1131 O____O______O_ jtwc_sh SH042000 -17.9000 68.8000 75 1 -18.4000 68.8000 4 75 958 5.00000 5.00000 -17.9000 68.8000 TC 75 9 233
2000003S13082 2000 1 SI MM BABIOLA 2000-01-09 09:00:00 TS -18.3800 68.4033 main 1131 1094 P____P______P_ SH042000 -18.2775 68.4352 77 1 -18.5848 68.3397 4 77 955 -18.2775 68.4352 TC 77 10 226
2000003S13082 2000 1 SI MM BABIOLA 2000-01-09 12:00:00 TS -18.7333 68.0667 80 953 reunion main 1094 1055 O____O______O_ jtwc_sh SH042000 -18.7000 68.1000 80 1 -18.8000 68.0000 4 80 953 5.00000 5.00000 -18.7000 68.1000 TC 80 9 218
2000003S13082 2000 1 SI MM BABIOLA 2000-01-09 15:00:00 TS -19.1024 67.8057 main 1055 1029 P____P______P_ SH042000 -19.0649 67.8273 85 2 -19.1774 67.7625 4 82 951 -19.0649 67.8273 TC 85 9 211
2000003S13082 2000 1 SI MM BABIOLA 2000-01-09 18:00:00 TS -19.4667 67.6000 85 950 reunion main 1028 1004 O____O______O_ jtwc_sh SH042000 -19.4000 67.6000 90 2 -19.6000 67.6000 4 85 950 5.00000 5.00000 -19.4000 67.6000 TC 90 8 210
2000003S13082 2000 1 SI MM BABIOLA 2000-01-09 21:00:00 TS -19.7808 67.3866 main 1004 980 P____P______P_ SH042000 -19.6925 67.3625 90 2 -19.9575 67.4349 4 85 950 -19.6925 67.3625 TC 90 7 209
2000003S13082 2000 1 SI MM BABIOLA 2000-01-10 00:00:00 TS -20.1000 67.2333 85 950 reunion main 980 979 O____O______O_ jtwc_sh SH042000 -20.0000 67.2000 90 2 -20.3000 67.3000 4 85 950 5.00000 5.00000 -20.0000 67.2000 TC 90 7 196
2000003S13082 2000 1 SI MM BABIOLA 2000-01-10 03:00:00 TS -20.4783 67.1674 main 979 979 P____P______P_ SH042000 -20.3850 67.1624 90 2 -20.6650 67.1775 4 85 950 -20.3850 67.1624 TC 90 8 184
2000003S13082 2000 1 SI MM BABIOLA 2000-01-10 06:00:00 TS -20.8667 67.1667 85 950 reunion main 980 980 O____O______O_ jtwc_sh SH042000 -20.8000 67.2000 90 2 -21.0000 67.1000 4 85 950 4.50000 5.00000 -20.8000 67.2000 TC 90 7 179
2000003S13082 2000 1 SI MM BABIOLA 2000-01-10 09:00:00 TS -21.2067 67.1825 main 982 982 P____P______P_ SH042000 -21.1850 67.2351 82 1 -21.2500 67.0775 4 82 951 -21.1850 67.2351 TC 82 7 175
2000003S13082 2000 1 SI MM BABIOLA 2000-01-10 12:00:00 TS -21.5667 67.2333 80 953 reunion main 986 986 O____O______O_ jtwc_sh SH042000 -21.6000 67.3000 75 1 -21.5000 67.1000 4 80 953 3.50000 5.00000 -21.6000 67.3000 TC 75 8 172
2000003S13082 2000 1 SI MM BABIOLA 2000-01-10 15:00:00 TS -22.0192 67.3017 main 1002 1002 P____P______P_ SH042000 -22.1150 67.3850 70 1 -21.8275 67.1350 4 75 959 -22.1150 67.3850 TC 70 9 170
2000003S13082 2000 1 SI MM BABIOLA 2000-01-10 18:00:00 TS -22.4667 67.4000 70 965 reunion main 1023 1023 O____O______O_ jtwc_sh SH042000 -22.6000 67.5000 65 1 -22.2000 67.2000 4 70 965 3.50000 4.50000 -22.6000 67.5000 TC 65 8 166
2000003S13082 2000 1 SI MM BABIOLA 2000-01-10 21:00:00 TS -22.8150 67.5185 main 1040 1040 P____P______P_ SH042000 -22.9225 67.6352 60 0 -22.6000 67.2850 4 64 970 -22.9225 67.6352 TC 60 7 160
2000003S13082 2000 1 SI MM BABIOLA 2000-01-11 00:00:00 TS -23.1333 67.6667 58 975 reunion main 1069 1069 O____O______O_ jtwc_sh SH042000 -23.2000 67.8000 55 0 -23.0000 67.4000 3 58 975 3.50000 4.00000 -23.2000 67.8000 TC 55 7 157
2000003S13082 2000 1 SI MM BABIOLA 2000-01-11 03:00:00 TS -23.4733 67.8302 main 1091 1091 P____P______P_ SH042000 -23.5425 67.9925 50 0 -23.3348 67.5055 3 55 977 -23.5425 67.9925 TC 50 8 154
2000003S13082 2000 1 SI MM BABIOLA 2000-01-11 06:00:00 TS -23.8333 68.0333 53 980 reunion main 1120 1120 O____O______O_ jtwc_sh SH042000 -23.9000 68.2000 45 0 -23.7000 67.7000 3 53 980 3.00000 3.50000 -23.9000 68.2000 TC 45 9 149
2000003S13082 2000 1 SI MM BABIOLA 2000-01-11 09:00:00 TS -24.2185 68.3098 main 1164 1164 P____P______P_ SH042000 -24.2275 68.4151 40 0 -24.2004 68.0992 3 51 982 -24.2275 68.4151 TC 40 9 149
2000003S13082 2000 1 SI MM BABIOLA 2000-01-11 12:00:00 TS -24.6333 68.5667 50 985 reunion main 1208 1208 O____O______O_ jtwc_sh SH042000 -24.6000 68.6000 35 0 -24.7000 68.5000 3 50 985 2.50000 3.50000 -24.6000 68.6000 TC 35 9 158
2000003S13082 2000 1 SI MM BABIOLA 2000-01-11 15:00:00 TS -25.0682 68.6815 main 1238 1238 P____P______P_ SH042000 -25.0849 68.6855 35 0 -25.0347 68.6734 3 45 988 -25.0849 68.6855 TC 35 9 167
2000003S13082 2000 1 SI MM BABIOLA 2000-01-11 18:00:00 TS -25.5333 68.8000 40 992 reunion main 1264 1264 O____O______O_ jtwc_sh SH042000 -25.6000 68.8000 35 0 -25.4000 68.8000 3 40 992 2.00000 3.00000 -25.6000 68.8000 TC 35 10 161
2000003S13082 2000 1 SI MM BABIOLA 2000-01-11 21:00:00 TS -26.0033 69.0461 main 1306 1306 P____P______P_ SH042000 -26.0200 69.0629 35 0 -25.9699 69.0127 3 37 993 -26.0200 69.0629 TC 35 11 153
2000003S13082 2000 1 SI MM BABIOLA 2000-01-12 00:00:00 TS -26.5333 69.3667 35 995 reunion main 1367 1367 O____O______O_ jtwc_sh SH042000 -26.5000 69.4000 35 0 -26.6000 69.3000 3 35 995 2.00000 3.00000 -26.5000 69.4000 TC 35 13 155
2000003S13082 2000 1 SI MM BABIOLA 2000-01-12 03:00:00 TS -27.1877 69.6640 main 1429 1429 P____P______P_ SH042000 -27.1918 69.6758 35 0 -27.1797 69.6403 3 35 995 -27.1918 69.6758 TC 35 14 153
2000003S13082 2000 1 SI MM BABIOLA 2000-01-12 06:00:00 TS -27.8200 70.1000 35 995 reunion main 1497 1497 O____O______O_ jtwc_sh SH042000 -27.9000 70.1000 35 0 -27.7000 70.1000 3 35 995 2.00000 3.00000 -27.9000 70.1000 TC 35 15 139
2000003S13082 2000 1 SI MM BABIOLA 2000-01-12 09:00:00 TS -28.2884 70.7618 main 1584 1584 P____P______P_ SH042000 -28.4542 70.8108 32 -1 -28.1226 70.7129 3 35 995 -28.4542 70.8108 TC 32 15 123
2000003S13082 2000 1 SI MM BABIOLA 2000-01-12 12:00:00 TS -28.6333 71.5000 35 995 reunion main 1660 1660 O____O______O_ jtwc_sh SH042000 -28.9000 71.7000 30 -1 -28.5000 71.4000 3 35 995 2.50000 3.00000 -28.9000 71.7000 TC 30 13 117
2000003S13082 2000 1 SI MM BABIOLA 2000-01-12 15:00:00 TS -28.8619 72.0291 main 1719 1719 _____P________ SH042000 -1 -28.8619 72.0291 3 35 995 TC 12 122
2000003S13082 2000 1 SI MM BABIOLA 2000-01-12 18:00:00 ET -29.3000 72.7000 35 995 reunion main 1800 1800 _____O________ -1 -29.3000 72.7000 5 35 995 9.90000 17 129
2000003S13082 2000 1 SI MM BABIOLA 2000-01-12 21:00:00 ET -29.9210 73.5507 main 1909 1909 _____P________ -1 -29.9210 73.5507 5 35 995 19 133
2000003S13082 2000 1 SI MM BABIOLA 2000-01-13 00:00:00 ET -30.6000 74.3000 35 995 reunion main 2006 2006 _____O________ -1 -30.6000 74.3000 5 35 995 9.90000 16 142
2000003S13082 2000 1 SI MM BABIOLA 2000-01-13 03:00:00 ET -31.2067 74.7284 main 2016 1954 _____P________ -1 -31.2067 74.7284 5 35 992 13 157
2000003S13082 2000 1 SI MM BABIOLA 2000-01-13 06:00:00 ET -31.8000 74.9000 35 990 reunion main 1954 1889 _____O________ -1 -31.8000 74.9000 5 35 990 9.90000 12 173
2000003S13082 2000 1 SI MM BABIOLA 2000-01-13 09:00:00 ET -32.4074 74.9108 main 1889 1822 _____P________ -1 -32.4074 74.9108 5 37 987 12 184
2000003S13082 2000 1 SI MM BABIOLA 2000-01-13 12:00:00 ET -33.0000 74.8000 40 985 reunion main 1822 1766 _____O________ -1 -33.0000 74.8000 5 40 985 9.90000 12 188
2000003S13082 2000 1 SI MM BABIOLA 2000-01-13 15:00:00 ET -33.5725 74.7076 main 1755 1698 _____P________ -1 -33.5725 74.7076 5 40 985 11 189
2000003S13082 2000 1 SI MM BABIOLA 2000-01-13 18:00:00 ET -34.1000 74.6000 40 985 reunion main 1698 1653 _____O________ -1 -34.1000 74.6000 5 40 985 9.90000 10 192
2000003S13082 2000 1 SI MM BABIOLA 2000-01-13 21:00:00 ET -34.5500 74.4483 main 1651 1597 _____P________ -1 -34.5500 74.4483 5 40 985 9 190
2000003S13082 2000 1 SI MM BABIOLA 2000-01-14 00:00:00 ET -35.0000 74.4000 40 985 reunion main 1597 1545 _____O________ -1 -35.0000 74.4000 5 40 985 9.90000 10 177
2000003S13082 2000 1 SI MM BABIOLA 2000-01-14 03:00:00 ET -35.5117 74.5166 main 1545 1488 _____P________ -1 -35.5117 74.5166 5 40 985 12 160
2000003S13082 2000 1 SI MM BABIOLA 2000-01-14 06:00:00 ET -36.1000 74.9000 40 985 reunion main 1488 1436 _____O________ -1 -36.1000 74.9000 5 40 985 9.90000 15 145
2000003S13082 2000 1 SI MM BABIOLA 2000-01-14 09:00:00 ET -36.7770 75.6029 main 1428 1373 _____P________ -1 -36.7770 75.6029 5 40 985 19 138
2000003S13082 2000 1 SI MM BABIOLA 2000-01-14 12:00:00 ET -37.5000 76.5000 40 985 reunion main 1376 _____O________ -1 -37.5000 76.5000 5 40 985 9.90000 20 135

IBTrACS Databaseについて

本データベースは、米国NOAAが公開する1842年以降の世界の熱帯低気圧のベストトラックデータアーカイブInternational Best Track Archive for Climate Stewardship (IBTrACS)を、ウェブで閲覧しやすい形式に変換したものです。

最終更新日:2021-10-08